sensor_id;sensor_type;location;lat;lon;timestamp;temperature;humidity
47338;DHT22;33069;51.970;5.892;2023-08-20T00:00:52;19.30;85.40
47338;DHT22;33069;51.970;5.892;2023-08-20T00:03:40;19.30;85.20
47338;DHT22;33069;51.970;5.892;2023-08-20T00:06:26;19.20;85.30
47338;DHT22;33069;51.970;5.892;2023-08-20T00:09:12;19.10;85.30
47338;DHT22;33069;51.970;5.892;2023-08-20T00:11:58;19.00;85.50
47338;DHT22;33069;51.970;5.892;2023-08-20T00:15:02;19.00;85.60
47338;DHT22;33069;51.970;5.892;2023-08-20T00:17:52;19.10;85.70
47338;DHT22;33069;51.970;5.892;2023-08-20T00:20:38;19.20;85.50
47338;DHT22;33069;51.970;5.892;2023-08-20T00:23:26;19.20;85.40
47338;DHT22;33069;51.970;5.892;2023-08-20T00:26:12;19.20;85.40
47338;DHT22;33069;51.970;5.892;2023-08-20T00:28:58;19.20;85.50
47338;DHT22;33069;51.970;5.892;2023-08-20T00:31:44;19.20;85.30
47338;DHT22;33069;51.970;5.892;2023-08-20T00:34:30;19.20;85.20
47338;DHT22;33069;51.970;5.892;2023-08-20T00:37:16;19.20;84.90
47338;DHT22;33069;51.970;5.892;2023-08-20T00:40:02;19.10;85.10
47338;DHT22;33069;51.970;5.892;2023-08-20T00:42:51;19.00;85.30
47338;DHT22;33069;51.970;5.892;2023-08-20T00:45:37;19.00;85.50
47338;DHT22;33069;51.970;5.892;2023-08-20T00:48:24;19.00;85.60
47338;DHT22;33069;51.970;5.892;2023-08-20T00:51:10;19.00;85.70
47338;DHT22;33069;51.970;5.892;2023-08-20T00:53:56;18.90;85.70
47338;DHT22;33069;51.970;5.892;2023-08-20T00:56:42;18.90;85.80
47338;DHT22;33069;51.970;5.892;2023-08-20T00:59:30;18.90;85.70
47338;DHT22;33069;51.970;5.892;2023-08-20T01:02:18;18.90;85.60
47338;DHT22;33069;51.970;5.892;2023-08-20T01:05:05;18.90;85.70
47338;DHT22;33069;51.970;5.892;2023-08-20T01:13:58;18.90;86.00
47338;DHT22;33069;51.970;5.892;2023-08-20T01:16:46;18.80;86.10
47338;DHT22;33069;51.970;5.892;2023-08-20T01:19:32;18.70;86.40
47338;DHT22;33069;51.970;5.892;2023-08-20T01:28:48;18.80;86.90
47338;DHT22;33069;51.970;5.892;2023-08-20T01:31:34;18.80;86.90
47338;DHT22;33069;51.970;5.892;2023-08-20T01:34:21;18.80;86.90
47338;DHT22;33069;51.970;5.892;2023-08-20T01:37:07;18.80;87.00
47338;DHT22;33069;51.970;5.892;2023-08-20T01:39:53;18.90;87.00
47338;DHT22;33069;51.970;5.892;2023-08-20T01:42:40;18.80;87.00
47338;DHT22;33069;51.970;5.892;2023-08-20T01:45:26;18.80;87.20
47338;DHT22;33069;51.970;5.892;2023-08-20T01:48:12;18.70;87.10
47338;DHT22;33069;51.970;5.892;2023-08-20T01:50:58;18.80;87.00
47338;DHT22;33069;51.970;5.892;2023-08-20T01:53:43;18.90;87.00
47338;DHT22;33069;51.970;5.892;2023-08-20T01:56:29;18.90;86.60
47338;DHT22;33069;51.970;5.892;2023-08-20T01:59:15;19.00;86.30
47338;DHT22;33069;51.970;5.892;2023-08-20T02:02:01;19.10;86.10
47338;DHT22;33069;51.970;5.892;2023-08-20T02:04:48;19.10;86.00
47338;DHT22;33069;51.970;5.892;2023-08-20T02:07:34;18.70;86.20
47338;DHT22;33069;51.970;5.892;2023-08-20T02:10:20;18.40;87.10
47338;DHT22;33069;51.970;5.892;2023-08-20T02:13:06;18.50;87.40
47338;DHT22;33069;51.970;5.892;2023-08-20T02:16:00;18.50;87.30
47338;DHT22;33069;51.970;5.892;2023-08-20T02:18:46;18.50;87.30
47338;DHT22;33069;51.970;5.892;2023-08-20T02:21:32;18.50;87.50
47338;DHT22;33069;51.970;5.892;2023-08-20T02:24:18;18.40;87.50
47338;DHT22;33069;51.970;5.892;2023-08-20T02:27:04;18.40;87.60
47338;DHT22;33069;51.970;5.892;2023-08-20T02:29:50;18.40;87.60
47338;DHT22;33069;51.970;5.892;2023-08-20T02:32:37;18.50;87.80
47338;DHT22;33069;51.970;5.892;2023-08-20T02:35:23;18.60;87.80
47338;DHT22;33069;51.970;5.892;2023-08-20T02:38:09;18.50;87.70
47338;DHT22;33069;51.970;5.892;2023-08-20T02:40:55;18.60;87.60
47338;DHT22;33069;51.970;5.892;2023-08-20T02:43:41;18.40;87.30
47338;DHT22;33069;51.970;5.892;2023-08-20T02:46:27;18.30;87.60
47338;DHT22;33069;51.970;5.892;2023-08-20T02:49:13;18.20;87.80
47338;DHT22;33069;51.970;5.892;2023-08-20T02:52:00;18.30;88.00
47338;DHT22;33069;51.970;5.892;2023-08-20T02:54:46;18.30;88.00
47338;DHT22;33069;51.970;5.892;2023-08-20T02:57:32;18.30;87.90
47338;DHT22;33069;51.970;5.892;2023-08-20T03:00:18;18.30;87.80
47338;DHT22;33069;51.970;5.892;2023-08-20T03:03:04;18.30;87.90
47338;DHT22;33069;51.970;5.892;2023-08-20T03:05:53;18.30;87.90
47338;DHT22;33069;51.970;5.892;2023-08-20T03:08:39;18.20;87.90
47338;DHT22;33069;51.970;5.892;2023-08-20T03:11:25;18.20;87.90
47338;DHT22;33069;51.970;5.892;2023-08-20T03:14:11;18.20;87.90
47338;DHT22;33069;51.970;5.892;2023-08-20T03:16:57;18.20;87.80
47338;DHT22;33069;51.970;5.892;2023-08-20T03:19:57;18.20;87.70
47338;DHT22;33069;51.970;5.892;2023-08-20T03:22:44;18.10;87.70
47338;DHT22;33069;51.970;5.892;2023-08-20T03:25:30;18.00;87.80
47338;DHT22;33069;51.970;5.892;2023-08-20T03:28:18;17.90;87.90
47338;DHT22;33069;51.970;5.892;2023-08-20T03:31:04;17.80;87.90
47338;DHT22;33069;51.970;5.892;2023-08-20T03:33:50;17.90;88.00
47338;DHT22;33069;51.970;5.892;2023-08-20T03:36:36;17.80;88.00
47338;DHT22;33069;51.970;5.892;2023-08-20T03:39:22;17.90;88.00
47338;DHT22;33069;51.970;5.892;2023-08-20T03:42:08;17.80;87.90
47338;DHT22;33069;51.970;5.892;2023-08-20T03:44:54;17.80;88.00
47338;DHT22;33069;51.970;5.892;2023-08-20T03:47:40;17.70;88.00
47338;DHT22;33069;51.970;5.892;2023-08-20T03:50:29;17.70;88.20
47338;DHT22;33069;51.970;5.892;2023-08-20T03:53:15;17.70;88.20
47338;DHT22;33069;51.970;5.892;2023-08-20T03:56:01;17.60;88.00
47338;DHT22;33069;51.970;5.892;2023-08-20T03:58:48;17.70;88.30
47338;DHT22;33069;51.970;5.892;2023-08-20T04:01:34;17.70;88.30
47338;DHT22;33069;51.970;5.892;2023-08-20T04:04:21;17.70;88.30
47338;DHT22;33069;51.970;5.892;2023-08-20T04:07:07;17.70;88.30
47338;DHT22;33069;51.970;5.892;2023-08-20T04:09:53;17.60;88.30
47338;DHT22;33069;51.970;5.892;2023-08-20T04:12:39;17.70;88.40
47338;DHT22;33069;51.970;5.892;2023-08-20T04:15:25;17.60;88.40
47338;DHT22;33069;51.970;5.892;2023-08-20T04:18:11;17.60;88.50
47338;DHT22;33069;51.970;5.892;2023-08-20T04:20:57;17.70;88.60
47338;DHT22;33069;51.970;5.892;2023-08-20T04:23:43;17.60;88.40
47338;DHT22;33069;51.970;5.892;2023-08-20T04:26:29;17.70;88.50
47338;DHT22;33069;51.970;5.892;2023-08-20T04:29:15;17.70;88.60
47338;DHT22;33069;51.970;5.892;2023-08-20T04:32:01;17.60;88.50
47338;DHT22;33069;51.970;5.892;2023-08-20T04:34:47;17.60;88.40
47338;DHT22;33069;51.970;5.892;2023-08-20T04:37:35;17.60;88.40
47338;DHT22;33069;51.970;5.892;2023-08-20T04:40:21;17.50;88.30
47338;DHT22;33069;51.970;5.892;2023-08-20T04:43:08;17.40;88.40
47338;DHT22;33069;51.970;5.892;2023-08-20T04:45:54;17.50;88.80
47338;DHT22;33069;51.970;5.892;2023-08-20T04:48:40;17.40;88.90
47338;DHT22;33069;51.970;5.892;2023-08-20T04:51:26;17.40;89.10
47338;DHT22;33069;51.970;5.892;2023-08-20T04:54:12;17.50;89.20
47338;DHT22;33069;51.970;5.892;2023-08-20T04:56:58;17.60;89.10
47338;DHT22;33069;51.970;5.892;2023-08-20T04:59:44;17.70;89.10
47338;DHT22;33069;51.970;5.892;2023-08-20T05:02:31;17.50;89.00
47338;DHT22;33069;51.970;5.892;2023-08-20T05:05:17;17.50;89.00
47338;DHT22;33069;51.970;5.892;2023-08-20T05:08:03;17.50;89.10
47338;DHT22;33069;51.970;5.892;2023-08-20T05:10:50;17.60;89.20
47338;DHT22;33069;51.970;5.892;2023-08-20T05:13:36;17.50;89.10
47338;DHT22;33069;51.970;5.892;2023-08-20T05:16:22;17.50;89.40
47338;DHT22;33069;51.970;5.892;2023-08-20T05:19:08;17.40;89.50
47338;DHT22;33069;51.970;5.892;2023-08-20T05:21:54;17.50;89.60
47338;DHT22;33069;51.970;5.892;2023-08-20T05:24:42;17.50;89.70
47338;DHT22;33069;51.970;5.892;2023-08-20T05:27:28;17.60;89.80
47338;DHT22;33069;51.970;5.892;2023-08-20T05:30:14;17.60;89.80
47338;DHT22;33069;51.970;5.892;2023-08-20T05:33:00;17.70;89.70
47338;DHT22;33069;51.970;5.892;2023-08-20T05:35:46;17.70;89.70
47338;DHT22;33069;51.970;5.892;2023-08-20T05:38:32;17.70;89.60
47338;DHT22;33069;51.970;5.892;2023-08-20T05:41:18;17.70;89.50
47338;DHT22;33069;51.970;5.892;2023-08-20T05:44:04;17.70;89.50
47338;DHT22;33069;51.970;5.892;2023-08-20T05:46:50;17.80;89.50
47338;DHT22;33069;51.970;5.892;2023-08-20T05:49:36;17.80;89.30
47338;DHT22;33069;51.970;5.892;2023-08-20T05:52:22;17.90;89.20
47338;DHT22;33069;51.970;5.892;2023-08-20T05:55:08;18.00;89.30
47338;DHT22;33069;51.970;5.892;2023-08-20T05:57:54;18.10;89.20
47338;DHT22;33069;51.970;5.892;2023-08-20T06:00:41;18.00;88.90
47338;DHT22;33069;51.970;5.892;2023-08-20T06:03:27;18.10;88.80
47338;DHT22;33069;51.970;5.892;2023-08-20T06:06:13;18.30;88.60
47338;DHT22;33069;51.970;5.892;2023-08-20T06:08:59;18.30;88.30
47338;DHT22;33069;51.970;5.892;2023-08-20T06:11:44;18.30;87.70
47338;DHT22;33069;51.970;5.892;2023-08-20T06:14:30;18.30;86.80
47338;DHT22;33069;51.970;5.892;2023-08-20T06:17:16;18.50;86.20
47338;DHT22;33069;51.970;5.892;2023-08-20T06:20:04;18.60;85.80
47338;DHT22;33069;51.970;5.892;2023-08-20T06:22:54;18.60;85.10
47338;DHT22;33069;51.970;5.892;2023-08-20T06:25:40;18.70;84.30
47338;DHT22;33069;51.970;5.892;2023-08-20T06:28:26;18.70;83.60
47338;DHT22;33069;51.970;5.892;2023-08-20T06:31:12;18.80;82.40
47338;DHT22;33069;51.970;5.892;2023-08-20T06:33:58;18.90;81.50
47338;DHT22;33069;51.970;5.892;2023-08-20T06:36:44;19.00;81.30
47338;DHT22;33069;51.970;5.892;2023-08-20T06:39:30;18.90;80.10
47338;DHT22;33069;51.970;5.892;2023-08-20T06:42:16;19.00;79.80
47338;DHT22;33069;51.970;5.892;2023-08-20T06:45:02;19.10;79.80
47338;DHT22;33069;51.970;5.892;2023-08-20T06:47:48;19.20;79.00
47338;DHT22;33069;51.970;5.892;2023-08-20T06:50:34;19.30;78.60
47338;DHT22;33069;51.970;5.892;2023-08-20T06:53:20;19.30;78.50
47338;DHT22;33069;51.970;5.892;2023-08-20T06:56:09;19.40;78.40
47338;DHT22;33069;51.970;5.892;2023-08-20T06:58:55;19.40;77.60
47338;DHT22;33069;51.970;5.892;2023-08-20T07:01:41;19.50;77.50
47338;DHT22;33069;51.970;5.892;2023-08-20T07:04:27;19.50;77.00
47338;DHT22;33069;51.970;5.892;2023-08-20T07:07:13;19.70;77.10
47338;DHT22;33069;51.970;5.892;2023-08-20T07:10:00;19.70;77.10
47338;DHT22;33069;51.970;5.892;2023-08-20T07:12:46;19.60;76.40
47338;DHT22;33069;51.970;5.892;2023-08-20T07:15:32;19.70;77.10
47338;DHT22;33069;51.970;5.892;2023-08-20T07:18:18;19.70;75.90
47338;DHT22;33069;51.970;5.892;2023-08-20T07:21:04;19.80;75.70
47338;DHT22;33069;51.970;5.892;2023-08-20T07:23:50;19.80;75.80
47338;DHT22;33069;51.970;5.892;2023-08-20T07:26:36;19.90;75.90
47338;DHT22;33069;51.970;5.892;2023-08-20T07:29:22;19.80;76.60
47338;DHT22;33069;51.970;5.892;2023-08-20T07:32:10;19.90;77.00
47338;DHT22;33069;51.970;5.892;2023-08-20T07:34:57;19.90;78.10
47338;DHT22;33069;51.970;5.892;2023-08-20T07:37:43;19.90;77.10
47338;DHT22;33069;51.970;5.892;2023-08-20T07:40:29;19.90;76.90
47338;DHT22;33069;51.970;5.892;2023-08-20T07:43:15;20.00;76.10
47338;DHT22;33069;51.970;5.892;2023-08-20T07:46:01;20.10;76.50
47338;DHT22;33069;51.970;5.892;2023-08-20T07:48:48;20.00;75.70
47338;DHT22;33069;51.970;5.892;2023-08-20T07:51:34;20.20;75.90
47338;DHT22;33069;51.970;5.892;2023-08-20T07:54:20;20.20;74.90
47338;DHT22;33069;51.970;5.892;2023-08-20T07:57:06;20.30;75.00
47338;DHT22;33069;51.970;5.892;2023-08-20T07:59:52;20.40;75.00
47338;DHT22;33069;51.970;5.892;2023-08-20T08:02:38;20.40;74.90
47338;DHT22;33069;51.970;5.892;2023-08-20T08:05:24;20.60;74.80
47338;DHT22;33069;51.970;5.892;2023-08-20T08:08:10;20.70;75.60
47338;DHT22;33069;51.970;5.892;2023-08-20T08:10:56;20.80;74.00
47338;DHT22;33069;51.970;5.892;2023-08-20T08:13:42;20.80;73.30
47338;DHT22;33069;51.970;5.892;2023-08-20T08:16:28;20.90;70.50
47338;DHT22;33069;51.970;5.892;2023-08-20T08:19:14;21.00;70.50
47338;DHT22;33069;51.970;5.892;2023-08-20T08:22:00;21.00;69.40
47338;DHT22;33069;51.970;5.892;2023-08-20T08:24:46;21.10;68.40
47338;DHT22;33069;51.970;5.892;2023-08-20T08:27:32;21.20;67.90
47338;DHT22;33069;51.970;5.892;2023-08-20T08:30:18;21.20;68.60
47338;DHT22;33069;51.970;5.892;2023-08-20T08:33:04;21.30;68.50
47338;DHT22;33069;51.970;5.892;2023-08-20T08:35:50;21.40;68.00
47338;DHT22;33069;51.970;5.892;2023-08-20T08:38:37;21.70;68.60
47338;DHT22;33069;51.970;5.892;2023-08-20T08:41:23;21.70;69.00
47338;DHT22;33069;51.970;5.892;2023-08-20T08:44:11;21.70;70.00
47338;DHT22;33069;51.970;5.892;2023-08-20T08:46:57;21.70;66.10
47338;DHT22;33069;51.970;5.892;2023-08-20T08:49:44;21.80;66.10
47338;DHT22;33069;51.970;5.892;2023-08-20T08:52:31;21.90;66.00
47338;DHT22;33069;51.970;5.892;2023-08-20T08:55:18;22.00;66.20
47338;DHT22;33069;51.970;5.892;2023-08-20T08:58:04;22.10;67.00
47338;DHT22;33069;51.970;5.892;2023-08-20T09:00:50;22.10;66.90
47338;DHT22;33069;51.970;5.892;2023-08-20T09:03:36;22.10;64.90
47338;DHT22;33069;51.970;5.892;2023-08-20T09:06:22;22.20;65.80
47338;DHT22;33069;51.970;5.892;2023-08-20T09:09:08;22.30;64.00
47338;DHT22;33069;51.970;5.892;2023-08-20T09:11:54;22.50;64.30
47338;DHT22;33069;51.970;5.892;2023-08-20T09:14:40;22.60;65.00
47338;DHT22;33069;51.970;5.892;2023-08-20T09:17:29;22.60;63.00
47338;DHT22;33069;51.970;5.892;2023-08-20T09:20:15;22.60;61.70
47338;DHT22;33069;51.970;5.892;2023-08-20T09:23:01;22.80;62.40
47338;DHT22;33069;51.970;5.892;2023-08-20T09:25:47;22.70;58.40
47338;DHT22;33069;51.970;5.892;2023-08-20T09:28:45;22.80;59.30
47338;DHT22;33069;51.970;5.892;2023-08-20T09:31:40;22.80;59.80
47338;DHT22;33069;51.970;5.892;2023-08-20T09:34:52;22.80;59.50
47338;DHT22;33069;51.970;5.892;2023-08-20T09:37:39;22.80;60.50
47338;DHT22;33069;51.970;5.892;2023-08-20T09:40:25;22.80;61.00
47338;DHT22;33069;51.970;5.892;2023-08-20T09:43:12;22.90;60.50
47338;DHT22;33069;51.970;5.892;2023-08-20T09:46:02;23.00;58.80
47338;DHT22;33069;51.970;5.892;2023-08-20T09:48:51;23.00;57.60
47338;DHT22;33069;51.970;5.892;2023-08-20T09:51:37;23.00;56.40
47338;DHT22;33069;51.970;5.892;2023-08-20T09:55:11;23.10;57.30
47338;DHT22;33069;51.970;5.892;2023-08-20T09:57:59;22.90;57.50
47338;DHT22;33069;51.970;5.892;2023-08-20T10:00:46;23.10;57.20
47338;DHT22;33069;51.970;5.892;2023-08-20T10:03:32;23.20;57.20
47338;DHT22;33069;51.970;5.892;2023-08-20T10:06:18;23.30;57.10
47338;DHT22;33069;51.970;5.892;2023-08-20T10:09:05;23.30;56.90
47338;DHT22;33069;51.970;5.892;2023-08-20T10:11:52;23.40;56.90
47338;DHT22;33069;51.970;5.892;2023-08-20T10:14:38;23.40;56.30
47338;DHT22;33069;51.970;5.892;2023-08-20T10:17:25;23.30;57.80
47338;DHT22;33069;51.970;5.892;2023-08-20T10:20:13;23.30;58.60
47338;DHT22;33069;51.970;5.892;2023-08-20T10:23:02;23.60;59.50
47338;DHT22;33069;51.970;5.892;2023-08-20T10:25:48;23.60;58.60
47338;DHT22;33069;51.970;5.892;2023-08-20T10:28:35;23.60;56.50
47338;DHT22;33069;51.970;5.892;2023-08-20T10:31:25;23.60;53.20
47338;DHT22;33069;51.970;5.892;2023-08-20T10:34:11;23.80;54.20
47338;DHT22;33069;51.970;5.892;2023-08-20T10:36:57;23.80;54.50
47338;DHT22;33069;51.970;5.892;2023-08-20T10:39:54;23.80;54.50
47338;DHT22;33069;51.970;5.892;2023-08-20T10:42:41;23.80;54.90
47338;DHT22;33069;51.970;5.892;2023-08-20T10:45:30;23.80;56.20
47338;DHT22;33069;51.970;5.892;2023-08-20T10:48:16;23.80;53.80
47338;DHT22;33069;51.970;5.892;2023-08-20T10:51:10;23.80;52.60
47338;DHT22;33069;51.970;5.892;2023-08-20T10:56:57;23.90;52.30
47338;DHT22;33069;51.970;5.892;2023-08-20T10:59:59;24.10;52.80
47338;DHT22;33069;51.970;5.892;2023-08-20T11:02:47;24.20;52.60
47338;DHT22;33069;51.970;5.892;2023-08-20T11:05:34;24.30;53.30
47338;DHT22;33069;51.970;5.892;2023-08-20T11:08:20;24.30;52.90
47338;DHT22;33069;51.970;5.892;2023-08-20T11:11:07;24.30;52.10
47338;DHT22;33069;51.970;5.892;2023-08-20T11:13:53;24.20;52.30
47338;DHT22;33069;51.970;5.892;2023-08-20T11:16:41;24.30;48.70
47338;DHT22;33069;51.970;5.892;2023-08-20T11:19:28;24.30;52.20
47338;DHT22;33069;51.970;5.892;2023-08-20T11:22:14;24.30;52.90
47338;DHT22;33069;51.970;5.892;2023-08-20T11:25:01;24.30;52.10
47338;DHT22;33069;51.970;5.892;2023-08-20T11:27:48;24.40;50.30
47338;DHT22;33069;51.970;5.892;2023-08-20T11:30:36;24.00;51.20
47338;DHT22;33069;51.970;5.892;2023-08-20T11:33:23;24.10;51.70
47338;DHT22;33069;51.970;5.892;2023-08-20T11:36:09;24.30;50.70
47338;DHT22;33069;51.970;5.892;2023-08-20T11:38:55;24.50;51.60
47338;DHT22;33069;51.970;5.892;2023-08-20T11:41:43;24.50;50.80
47338;DHT22;33069;51.970;5.892;2023-08-20T11:44:47;24.50;49.60
47338;DHT22;33069;51.970;5.892;2023-08-20T11:47:40;24.50;50.10
47338;DHT22;33069;51.970;5.892;2023-08-20T11:50:26;24.60;49.90
47338;DHT22;33069;51.970;5.892;2023-08-20T11:53:12;24.70;50.40
47338;DHT22;33069;51.970;5.892;2023-08-20T11:55:59;24.60;47.90
47338;DHT22;33069;51.970;5.892;2023-08-20T11:58:52;24.80;47.50
47338;DHT22;33069;51.970;5.892;2023-08-20T12:01:38;24.80;49.10
47338;DHT22;33069;51.970;5.892;2023-08-20T12:04:26;24.90;48.50
47338;DHT22;33069;51.970;5.892;2023-08-20T12:07:15;24.80;49.60
47338;DHT22;33069;51.970;5.892;2023-08-20T12:10:20;24.80;49.60
47338;DHT22;33069;51.970;5.892;2023-08-20T12:13:09;24.60;49.70
47338;DHT22;33069;51.970;5.892;2023-08-20T12:15:55;24.80;49.80
47338;DHT22;33069;51.970;5.892;2023-08-20T12:18:41;24.80;51.00
47338;DHT22;33069;51.970;5.892;2023-08-20T12:21:27;24.80;50.40
47338;DHT22;33069;51.970;5.892;2023-08-20T12:24:13;24.80;50.50
47338;DHT22;33069;51.970;5.892;2023-08-20T12:26:59;25.00;49.40
47338;DHT22;33069;51.970;5.892;2023-08-20T12:29:45;25.10;49.40
47338;DHT22;33069;51.970;5.892;2023-08-20T12:32:31;25.20;49.20
47338;DHT22;33069;51.970;5.892;2023-08-20T12:35:17;25.20;48.40
47338;DHT22;33069;51.970;5.892;2023-08-20T12:38:03;25.00;49.00
47338;DHT22;33069;51.970;5.892;2023-08-20T12:40:49;25.10;49.40
47338;DHT22;33069;51.970;5.892;2023-08-20T12:43:35;25.20;48.90
47338;DHT22;33069;51.970;5.892;2023-08-20T12:46:21;25.30;48.30
47338;DHT22;33069;51.970;5.892;2023-08-20T12:49:07;25.40;48.80
47338;DHT22;33069;51.970;5.892;2023-08-20T12:51:53;25.30;50.20
47338;DHT22;33069;51.970;5.892;2023-08-20T12:54:39;25.40;50.20
47338;DHT22;33069;51.970;5.892;2023-08-20T12:57:25;25.50;49.20
47338;DHT22;33069;51.970;5.892;2023-08-20T13:00:11;25.50;50.10
47338;DHT22;33069;51.970;5.892;2023-08-20T13:02:58;25.50;49.10
47338;DHT22;33069;51.970;5.892;2023-08-20T13:05:44;25.50;48.80
47338;DHT22;33069;51.970;5.892;2023-08-20T13:08:30;25.60;49.20
47338;DHT22;33069;51.970;5.892;2023-08-20T13:11:19;25.70;48.80
47338;DHT22;33069;51.970;5.892;2023-08-20T13:14:06;25.80;50.20
47338;DHT22;33069;51.970;5.892;2023-08-20T13:16:52;25.80;48.00
47338;DHT22;33069;51.970;5.892;2023-08-20T13:19:39;25.50;49.40
47338;DHT22;33069;51.970;5.892;2023-08-20T13:22:25;25.60;49.80
47338;DHT22;33069;51.970;5.892;2023-08-20T13:25:11;25.60;50.90
47338;DHT22;33069;51.970;5.892;2023-08-20T13:27:56;25.80;50.40
47338;DHT22;33069;51.970;5.892;2023-08-20T13:30:42;26.00;49.10
47338;DHT22;33069;51.970;5.892;2023-08-20T13:33:28;26.40;50.50
47338;DHT22;33069;51.970;5.892;2023-08-20T13:36:14;26.20;51.20
47338;DHT22;33069;51.970;5.892;2023-08-20T13:39:01;26.40;48.80
47338;DHT22;33069;51.970;5.892;2023-08-20T13:41:49;26.00;51.50
47338;DHT22;33069;51.970;5.892;2023-08-20T13:44:36;25.70;50.30
47338;DHT22;33069;51.970;5.892;2023-08-20T13:47:22;25.50;51.10
47338;DHT22;33069;51.970;5.892;2023-08-20T13:50:08;25.60;52.10
47338;DHT22;33069;51.970;5.892;2023-08-20T13:52:54;25.60;51.10
47338;DHT22;33069;51.970;5.892;2023-08-20T13:55:41;25.80;51.70
47338;DHT22;33069;51.970;5.892;2023-08-20T13:58:27;26.20;51.20
47338;DHT22;33069;51.970;5.892;2023-08-20T14:01:13;26.40;49.10
47338;DHT22;33069;51.970;5.892;2023-08-20T14:03:59;26.50;49.40
47338;DHT22;33069;51.970;5.892;2023-08-20T14:06:45;26.80;49.60
47338;DHT22;33069;51.970;5.892;2023-08-20T14:09:31;26.80;48.80
47338;DHT22;33069;51.970;5.892;2023-08-20T14:12:17;26.50;48.70
47338;DHT22;33069;51.970;5.892;2023-08-20T14:15:03;26.40;48.10
47338;DHT22;33069;51.970;5.892;2023-08-20T14:17:49;26.60;49.00
47338;DHT22;33069;51.970;5.892;2023-08-20T14:20:35;26.80;46.60
47338;DHT22;33069;51.970;5.892;2023-08-20T14:23:21;26.80;47.80
47338;DHT22;33069;51.970;5.892;2023-08-20T14:26:07;27.00;47.10
47338;DHT22;33069;51.970;5.892;2023-08-20T14:28:53;26.80;50.70
47338;DHT22;33069;51.970;5.892;2023-08-20T14:31:39;26.70;50.90
47338;DHT22;33069;51.970;5.892;2023-08-20T14:34:25;27.00;49.60
47338;DHT22;33069;51.970;5.892;2023-08-20T14:37:11;27.40;46.50
47338;DHT22;33069;51.970;5.892;2023-08-20T14:39:59;27.60;47.10
47338;DHT22;33069;51.970;5.892;2023-08-20T14:42:45;27.70;46.00
47338;DHT22;33069;51.970;5.892;2023-08-20T14:45:31;27.90;44.60
47338;DHT22;33069;51.970;5.892;2023-08-20T14:48:16;28.10;46.00
47338;DHT22;33069;51.970;5.892;2023-08-20T14:51:02;27.30;48.80
47338;DHT22;33069;51.970;5.892;2023-08-20T14:53:48;27.20;47.40
47338;DHT22;33069;51.970;5.892;2023-08-20T14:56:34;27.00;49.70
47338;DHT22;33069;51.970;5.892;2023-08-20T14:59:20;27.40;46.60
47338;DHT22;33069;51.970;5.892;2023-08-20T15:02:06;26.80;48.00
47338;DHT22;33069;51.970;5.892;2023-08-20T15:04:53;27.50;48.30
47338;DHT22;33069;51.970;5.892;2023-08-20T15:07:39;28.00;45.50
47338;DHT22;33069;51.970;5.892;2023-08-20T15:10:26;28.50;44.40
47338;DHT22;33069;51.970;5.892;2023-08-20T15:13:12;28.10;45.20
47338;DHT22;33069;51.970;5.892;2023-08-20T15:15:59;27.30;47.10
47338;DHT22;33069;51.970;5.892;2023-08-20T15:18:45;27.20;48.40
47338;DHT22;33069;51.970;5.892;2023-08-20T15:21:31;27.60;47.90
47338;DHT22;33069;51.970;5.892;2023-08-20T15:24:17;27.40;47.20
47338;DHT22;33069;51.970;5.892;2023-08-20T15:27:03;27.80;46.10
47338;DHT22;33069;51.970;5.892;2023-08-20T15:29:49;27.90;45.80
47338;DHT22;33069;51.970;5.892;2023-08-20T15:32:35;28.30;45.90
47338;DHT22;33069;51.970;5.892;2023-08-20T15:35:21;28.30;45.60
47338;DHT22;33069;51.970;5.892;2023-08-20T15:38:07;28.40;44.30
47338;DHT22;33069;51.970;5.892;2023-08-20T15:40:56;28.30;46.00
47338;DHT22;33069;51.970;5.892;2023-08-20T15:43:43;28.50;45.50
47338;DHT22;33069;51.970;5.892;2023-08-20T15:46:29;28.40;43.40
47338;DHT22;33069;51.970;5.892;2023-08-20T15:49:15;28.10;45.00
47338;DHT22;33069;51.970;5.892;2023-08-20T15:52:01;28.70;44.20
47338;DHT22;33069;51.970;5.892;2023-08-20T15:54:48;29.30;43.80
47338;DHT22;33069;51.970;5.892;2023-08-20T15:57:34;29.20;43.40
47338;DHT22;33069;51.970;5.892;2023-08-20T16:00:20;28.90;44.10
47338;DHT22;33069;51.970;5.892;2023-08-20T16:03:07;29.00;43.90
47338;DHT22;33069;51.970;5.892;2023-08-20T16:05:54;28.70;44.60
47338;DHT22;33069;51.970;5.892;2023-08-20T16:08:40;29.10;43.60
47338;DHT22;33069;51.970;5.892;2023-08-20T16:11:26;29.00;44.70
47338;DHT22;33069;51.970;5.892;2023-08-20T16:14:12;28.50;45.90
47338;DHT22;33069;51.970;5.892;2023-08-20T16:16:58;28.20;47.20
47338;DHT22;33069;51.970;5.892;2023-08-20T16:19:44;28.30;45.40
47338;DHT22;33069;51.970;5.892;2023-08-20T16:22:30;29.30;43.60
47338;DHT22;33069;51.970;5.892;2023-08-20T16:25:16;28.10;47.20
47338;DHT22;33069;51.970;5.892;2023-08-20T16:28:03;27.80;45.50
47338;DHT22;33069;51.970;5.892;2023-08-20T16:30:49;27.90;46.10
47338;DHT22;33069;51.970;5.892;2023-08-20T16:33:35;28.00;46.40
47338;DHT22;33069;51.970;5.892;2023-08-20T16:36:21;28.30;47.40
47338;DHT22;33069;51.970;5.892;2023-08-20T16:39:07;28.20;45.90
47338;DHT22;33069;51.970;5.892;2023-08-20T16:41:53;27.70;47.60
47338;DHT22;33069;51.970;5.892;2023-08-20T16:44:39;27.60;48.90
47338;DHT22;33069;51.970;5.892;2023-08-20T16:47:25;28.00;45.80
47338;DHT22;33069;51.970;5.892;2023-08-20T16:50:11;27.90;46.40
47338;DHT22;33069;51.970;5.892;2023-08-20T16:52:57;28.10;46.90
47338;DHT22;33069;51.970;5.892;2023-08-20T16:55:50;27.80;47.50
47338;DHT22;33069;51.970;5.892;2023-08-20T16:58:36;27.50;50.20
47338;DHT22;33069;51.970;5.892;2023-08-20T17:01:22;27.40;49.80
47338;DHT22;33069;51.970;5.892;2023-08-20T17:04:08;26.90;50.60
47338;DHT22;33069;51.970;5.892;2023-08-20T17:06:54;26.50;51.90
47338;DHT22;33069;51.970;5.892;2023-08-20T17:09:40;26.30;52.00
47338;DHT22;33069;51.970;5.892;2023-08-20T17:12:26;26.00;52.10
47338;DHT22;33069;51.970;5.892;2023-08-20T17:15:12;26.20;52.40
47338;DHT22;33069;51.970;5.892;2023-08-20T17:17:58;25.90;53.00
47338;DHT22;33069;51.970;5.892;2023-08-20T17:20:44;26.00;52.20
47338;DHT22;33069;51.970;5.892;2023-08-20T17:23:31;25.80;52.80
47338;DHT22;33069;51.970;5.892;2023-08-20T17:26:17;25.90;53.40
47338;DHT22;33069;51.970;5.892;2023-08-20T17:29:02;25.70;54.20
47338;DHT22;33069;51.970;5.892;2023-08-20T17:31:48;25.60;55.00
47338;DHT22;33069;51.970;5.892;2023-08-20T17:34:34;25.30;54.30
47338;DHT22;33069;51.970;5.892;2023-08-20T17:37:21;25.00;55.60
47338;DHT22;33069;51.970;5.892;2023-08-20T17:40:08;24.90;56.10
47338;DHT22;33069;51.970;5.892;2023-08-20T17:42:57;24.80;56.60
47338;DHT22;33069;51.970;5.892;2023-08-20T17:45:43;24.80;56.60
47338;DHT22;33069;51.970;5.892;2023-08-20T17:48:29;24.70;56.40